Time;durP1;ratioP1;P1;durP2;ratioP2;P2;SDS_P1;SDS_P2;PMS_P1;PMS_P2;Temp;Humidity;BMP_temperature;BMP_pressure;BME280_temperature;BME280_humidity;BME280_pressure;Samples;Min_cycle;Max_cycle;Signal;HPM_P1;HPM_P2
2023/09/17 00:00:54;;;;;;;49.35;32.08;;;;;;;;;;5055056;28;20032;-61
2023/09/17 00:03:20;;;;;;;47.72;32.00;;;;;;;;;;5054956;28;20584;-61
2023/09/17 00:05:45;;;;;;;53.95;33.15;;;;;;;;;;5054507;28;20540;-61
2023/09/17 00:08:10;;;;;;;49.35;32.10;;;;;;;;;;5052977;28;20392;-61
2023/09/17 00:10:37;;;;;;;57.38;33.50;;;;;;;;;;5054411;28;20033;-61
2023/09/17 00:13:03;;;;;;;54.50;33.75;;;;;;;;;;5054440;28;20021;-61
2023/09/17 00:15:29;;;;;;;55.05;32.92;;;;;;;;;;5054455;28;20112;-61
2023/09/17 00:17:54;;;;;;;54.72;34.92;;;;;;;;;;5054516;28;20107;-61
2023/09/17 00:20:19;;;;;;;48.88;33.28;;;;;;;;;;5054560;28;20070;-62
2023/09/17 00:22:45;;;;;;;58.47;35.85;;;;;;;;;;5054336;28;20036;-61
2023/09/17 00:25:11;;;;;;;54.95;35.83;;;;;;;;;;5054294;28;20021;-61
2023/09/17 00:27:36;;;;;;;59.75;36.80;;;;;;;;;;5053357;28;20036;-61
2023/09/17 00:30:01;;;;;;;54.85;35.33;;;;;;;;;;5053705;28;20102;-62
2023/09/17 00:32:26;;;;;;;58.67;37.50;;;;;;;;;;5054489;28;20025;-61
2023/09/17 00:34:52;;;;;;;62.15;38.10;;;;;;;;;;5054046;28;20029;-62
2023/09/17 00:37:18;;;;;;;58.22;37.15;;;;;;;;;;5053494;28;20021;-62
2023/09/17 00:39:43;;;;;;;56.35;35.53;;;;;;;;;;5054011;28;20025;-62
2023/09/17 00:42:09;;;;;;;55.00;35.20;;;;;;;;;;5054322;28;20079;-61
2023/09/17 00:44:34;;;;;;;54.63;35.70;;;;;;;;;;5054162;28;20377;-61
2023/09/17 00:47:02;;;;;;;54.00;36.22;;;;;;;;;;5052949;28;20013;-61
2023/09/17 00:49:28;;;;;;;53.95;35.38;;;;;;;;;;5053835;28;20093;-62
2023/09/17 00:51:53;;;;;;;58.92;36.60;;;;;;;;;;5053507;28;20017;-61
2023/09/17 00:54:19;;;;;;;60.08;37.45;;;;;;;;;;5053593;28;20029;-61
2023/09/17 00:56:44;;;;;;;57.95;36.95;;;;;;;;;;5053724;28;20013;-61
2023/09/17 00:59:10;;;;;;;59.55;36.95;;;;;;;;;;5053928;28;20021;-61
2023/09/17 01:01:54;;;;;;;60.85;37.88;;;;;;;;;;5053704;28;20496;-64
2023/09/17 01:04:20;;;;;;;64.45;39.08;;;;;;;;;;5046996;28;20056;-61
2023/09/17 01:06:46;;;;;;;66.65;41.03;;;;;;;;;;5041891;28;20025;-61
2023/09/17 01:09:12;;;;;;;64.53;39.85;;;;;;;;;;5054232;28;20110;-61
2023/09/17 01:11:37;;;;;;;70.53;42.78;;;;;;;;;;5043195;28;20475;-61
2023/09/17 01:14:14;;;;;;;72.90;43.05;;;;;;;;;;5035025;28;20064;-61
2023/09/17 01:16:41;;;;;;;70.43;42.50;;;;;;;;;;5039888;28;20020;-61
2023/09/17 01:19:08;;;;;;;70.10;42.38;;;;;;;;;;5054712;28;20465;-61
2023/09/17 01:21:39;;;;;;;72.78;45.60;;;;;;;;;;5054845;28;20137;-61
2023/09/17 01:24:23;;;;;;;79.55;45.42;;;;;;;;;;5051942;28;20074;-61
2023/09/17 01:27:14;;;;;;;76.63;45.05;;;;;;;;;;5054025;28;20055;-61
2023/09/17 01:29:41;;;;;;;75.20;45.70;;;;;;;;;;5054063;28;20039;-61
2023/09/17 01:32:07;;;;;;;85.25;48.28;;;;;;;;;;5054576;28;20032;-61
2023/09/17 01:34:37;;;;;;;80.47;47.30;;;;;;;;;;5054544;28;20474;-61
2023/09/17 01:37:05;;;;;;;82.28;46.67;;;;;;;;;;5054180;28;20029;-61
2023/09/17 01:39:33;;;;;;;84.53;48.03;;;;;;;;;;5054039;28;20376;-61
2023/09/17 01:41:58;;;;;;;91.97;50.60;;;;;;;;;;5054452;28;20469;-61
2023/09/17 01:44:24;;;;;;;86.15;49.88;;;;;;;;;;5054322;28;20035;-61
2023/09/17 01:46:50;;;;;;;81.35;48.25;;;;;;;;;;5054322;28;20025;-61
2023/09/17 01:49:16;;;;;;;87.60;51.30;;;;;;;;;;5054355;28;20025;-61
2023/09/17 01:51:41;;;;;;;83.35;49.75;;;;;;;;;;5054200;28;20410;-61
2023/09/17 01:54:07;;;;;;;85.65;50.35;;;;;;;;;;5053610;28;20008;-61
2023/09/17 01:56:34;;;;;;;84.47;50.13;;;;;;;;;;5053445;28;20028;-61
2023/09/17 01:59:00;;;;;;;82.30;49.03;;;;;;;;;;5054040;28;20083;-61
2023/09/17 02:01:25;;;;;;;86.50;47.50;;;;;;;;;;5053761;28;20424;-61
2023/09/17 02:03:50;;;;;;;83.65;48.60;;;;;;;;;;5053230;28;20066;-61
2023/09/17 02:06:16;;;;;;;87.53;48.75;;;;;;;;;;5053720;28;20021;-61
2023/09/17 02:08:41;;;;;;;81.68;48.38;;;;;;;;;;5053510;28;20377;-62
2023/09/17 02:11:06;;;;;;;81.53;47.42;;;;;;;;;;5053773;28;20070;-61
2023/09/17 02:13:32;;;;;;;79.50;46.67;;;;;;;;;;5053856;28;20013;-61
2023/09/17 02:15:57;;;;;;;81.90;49.25;;;;;;;;;;5053836;28;20024;-66
2023/09/17 02:18:22;;;;;;;85.53;48.17;;;;;;;;;;5053752;28;20500;-65
2023/09/17 02:20:48;;;;;;;82.47;48.33;;;;;;;;;;5053739;28;20358;-66
2023/09/17 02:23:13;;;;;;;82.25;48.97;;;;;;;;;;5053734;28;20469;-65
2023/09/17 02:25:38;;;;;;;84.82;48.13;;;;;;;;;;5053281;28;20392;-68
2023/09/17 02:28:03;;;;;;;89.32;50.35;;;;;;;;;;5053214;28;20021;-65
2023/09/17 02:30:29;;;;;;;86.25;48.60;;;;;;;;;;5053544;28;20094;-66
2023/09/17 02:32:54;;;;;;;90.32;49.60;;;;;;;;;;5053552;28;20416;-66
2023/09/17 02:35:19;;;;;;;88.05;50.17;;;;;;;;;;5053175;28;20404;-66
2023/09/17 02:37:45;;;;;;;86.43;51.05;;;;;;;;;;5053156;28;20032;-66
2023/09/17 02:40:11;;;;;;;90.40;50.92;;;;;;;;;;5053452;28;20366;-66
2023/09/17 02:42:37;;;;;;;88.28;51.72;;;;;;;;;;5052842;28;20366;-66
2023/09/17 02:45:03;;;;;;;89.22;49.97;;;;;;;;;;5053072;28;20029;-66
2023/09/17 02:47:28;;;;;;;87.90;49.42;;;;;;;;;;5051897;28;20104;-65
2023/09/17 02:49:53;;;;;;;87.05;49.72;;;;;;;;;;5053264;28;20102;-66
2023/09/17 02:52:18;;;;;;;86.95;48.28;;;;;;;;;;5052598;28;20103;-66
2023/09/17 02:54:44;;;;;;;89.32;49.85;;;;;;;;;;5053298;28;20021;-66
2023/09/17 02:57:09;;;;;;;85.57;49.50;;;;;;;;;;5053250;28;20049;-66
2023/09/17 02:59:34;;;;;;;89.38;50.75;;;;;;;;;;5053210;28;20399;-66
2023/09/17 03:02:00;;;;;;;93.28;51.13;;;;;;;;;;5053124;28;20071;-65
2023/09/17 03:04:26;;;;;;;94.95;51.13;;;;;;;;;;5052614;28;20048;-65
2023/09/17 03:06:52;;;;;;;92.20;51.20;;;;;;;;;;5053132;28;20013;-66
2023/09/17 03:09:18;;;;;;;95.53;51.35;;;;;;;;;;5052856;28;20029;-66
2023/09/17 03:11:43;;;;;;;104.22;54.13;;;;;;;;;;5052804;28;20021;-66
2023/09/17 03:14:09;;;;;;;102.50;53.35;;;;;;;;;;5052448;28;20077;-66
2023/09/17 03:16:34;;;;;;;107.72;54.83;;;;;;;;;;5051882;28;20056;-66
2023/09/17 03:19:00;;;;;;;107.78;53.60;;;;;;;;;;5052437;28;20017;-66
2023/09/17 03:21:25;;;;;;;102.57;54.63;;;;;;;;;;5052970;28;20025;-66
2023/09/17 03:23:50;;;;;;;111.53;53.78;;;;;;;;;;5052348;28;20052;-66
2023/09/17 03:26:16;;;;;;;97.82;51.53;;;;;;;;;;5053067;28;20056;-61
2023/09/17 03:28:41;;;;;;;100.55;52.60;;;;;;;;;;5052812;28;20025;-62
2023/09/17 03:31:06;;;;;;;99.65;52.28;;;;;;;;;;5052904;28;20500;-61
2023/09/17 03:33:32;;;;;;;98.93;52.17;;;;;;;;;;5052585;28;20021;-62
2023/09/17 03:36:00;;;;;;;93.82;51.17;;;;;;;;;;5052931;28;20019;-61
2023/09/17 03:38:25;;;;;;;89.40;49.15;;;;;;;;;;5052538;28;20109;-61
2023/09/17 03:40:50;;;;;;;87.70;48.30;;;;;;;;;;5052557;28;20048;-62
2023/09/17 03:43:16;;;;;;;85.95;48.85;;;;;;;;;;5052866;28;20036;-61
2023/09/17 03:45:41;;;;;;;89.15;49.70;;;;;;;;;;5052715;28;20028;-61
2023/09/17 03:48:07;;;;;;;85.13;49.33;;;;;;;;;;5052733;28;20031;-60
2023/09/17 03:50:32;;;;;;;88.82;49.65;;;;;;;;;;5052416;28;20018;-61
2023/09/17 03:52:58;;;;;;;88.68;49.15;;;;;;;;;;5052734;28;20029;-61
2023/09/17 03:55:24;;;;;;;88.50;48.30;;;;;;;;;;5052757;28;20421;-62
2023/09/17 03:57:50;;;;;;;86.22;48.97;;;;;;;;;;5052359;28;20060;-61
2023/09/17 04:00:15;;;;;;;82.80;48.38;;;;;;;;;;5052377;28;20115;-61
2023/09/17 04:02:41;;;;;;;87.70;48.72;;;;;;;;;;5052901;28;20021;-62
2023/09/17 04:05:09;;;;;;;84.57;47.95;;;;;;;;;;5035927;28;20076;-61
2023/09/17 04:07:35;;;;;;;91.43;50.65;;;;;;;;;;5035967;28;20035;-61
2023/09/17 04:10:00;;;;;;;89.28;50.95;;;;;;;;;;5036281;28;20029;-61
2023/09/17 04:12:25;;;;;;;90.60;51.20;;;;;;;;;;5036282;28;20033;-61
2023/09/17 04:14:52;;;;;;;93.38;50.85;;;;;;;;;;5036136;28;20029;-61
2023/09/17 04:17:17;;;;;;;95.10;51.17;;;;;;;;;;5036055;28;20548;-62
2023/09/17 04:19:42;;;;;;;93.88;51.25;;;;;;;;;;5035797;28;20018;-61
2023/09/17 04:22:08;;;;;;;92.53;49.35;;;;;;;;;;5036042;28;20017;-61
2023/09/17 04:24:33;;;;;;;88.78;49.80;;;;;;;;;;5035957;28;20022;-62
2023/09/17 04:26:58;;;;;;;96.05;50.45;;;;;;;;;;5035883;28;20032;-61
2023/09/17 04:29:24;;;;;;;91.55;50.35;;;;;;;;;;5035595;28;20025;-61
2023/09/17 04:31:51;;;;;;;89.22;49.92;;;;;;;;;;5035755;28;20113;-62
2023/09/17 04:34:17;;;;;;;101.22;51.88;;;;;;;;;;5035520;28;20021;-61
2023/09/17 04:36:43;;;;;;;96.28;51.30;;;;;;;;;;5034931;28;20021;-65
2023/09/17 04:39:09;;;;;;;89.85;50.50;;;;;;;;;;5054691;28;20417;-66
2023/09/17 04:41:35;;;;;;;91.35;50.38;;;;;;;;;;5054488;28;20393;-66
2023/09/17 04:44:03;;;;;;;95.40;52.40;;;;;;;;;;5055284;28;20024;-66
2023/09/17 04:46:28;;;;;;;95.18;50.85;;;;;;;;;;5055459;28;20037;-66
2023/09/17 04:48:54;;;;;;;94.20;49.78;;;;;;;;;;5055455;28;20025;-67
2023/09/17 04:51:20;;;;;;;97.93;51.90;;;;;;;;;;5055488;28;20025;-67
2023/09/17 04:53:46;;;;;;;98.72;51.45;;;;;;;;;;5055057;28;20024;-66
2023/09/17 04:56:11;;;;;;;94.25;50.72;;;;;;;;;;5055397;28;20025;-66
2023/09/17 04:58:36;;;;;;;98.68;51.78;;;;;;;;;;5054990;28;20389;-66
2023/09/17 05:01:02;;;;;;;95.95;50.78;;;;;;;;;;5054932;28;20033;-66
2023/09/17 05:03:27;;;;;;;102.10;51.90;;;;;;;;;;5054894;28;20029;-66
2023/09/17 05:05:52;;;;;;;96.80;52.25;;;;;;;;;;5055129;28;20049;-66
2023/09/17 05:08:18;;;;;;;103.45;51.67;;;;;;;;;;5055067;28;20065;-66
2023/09/17 05:10:43;;;;;;;105.63;50.95;;;;;;;;;;5055093;28;20024;-66
2023/09/17 05:13:09;;;;;;;98.75;51.70;;;;;;;;;;5052848;28;20540;-66
2023/09/17 05:15:34;;;;;;;102.32;52.30;;;;;;;;;;5053734;28;20027;-66
2023/09/17 05:18:00;;;;;;;102.40;52.63;;;;;;;;;;5054706;28;20100;-66
2023/09/17 05:20:25;;;;;;;106.63;52.65;;;;;;;;;;5054543;28;20039;-66
2023/09/17 05:22:50;;;;;;;104.38;51.28;;;;;;;;;;5054542;28;20079;-66
2023/09/17 05:25:15;;;;;;;103.25;51.60;;;;;;;;;;5054552;28;20028;-66
2023/09/17 05:27:41;;;;;;;99.65;50.10;;;;;;;;;;5054636;28;20108;-66
2023/09/17 05:30:06;;;;;;;99.45;51.40;;;;;;;;;;5054709;28;20025;-66
2023/09/17 05:32:31;;;;;;;101.93;51.53;;;;;;;;;;5054266;28;20032;-66
2023/09/17 05:34:58;;;;;;;98.25;50.35;;;;;;;;;;5054350;28;20017;-66
2023/09/17 05:37:23;;;;;;;95.72;49.28;;;;;;;;;;5054288;28;20131;-67
2023/09/17 05:39:48;;;;;;;99.18;49.80;;;;;;;;;;5054244;28;20020;-66
2023/09/17 05:42:14;;;;;;;104.40;50.88;;;;;;;;;;5054506;28;20013;-66
2023/09/17 05:44:39;;;;;;;98.28;49.58;;;;;;;;;;5054365;28;20092;-66
2023/09/17 05:47:04;;;;;;;102.10;50.85;;;;;;;;;;5054393;28;20102;-66
2023/09/17 05:49:29;;;;;;;97.28;49.50;;;;;;;;;;5054264;28;20067;-66
2023/09/17 05:51:55;;;;;;;99.85;48.67;;;;;;;;;;5054093;28;20368;-66
2023/09/17 05:54:21;;;;;;;89.72;48.05;;;;;;;;;;5053944;28;20437;-66
2023/09/17 05:56:46;;;;;;;89.80;47.53;;;;;;;;;;5053918;28;20447;-66
2023/09/17 05:59:11;;;;;;;89.30;46.33;;;;;;;;;;5054143;28;20025;-66
2023/09/17 06:01:37;;;;;;;83.07;44.78;;;;;;;;;;5054068;28;20074;-66
2023/09/17 06:04:02;;;;;;;82.90;44.78;;;;;;;;;;5053595;28;20535;-66
2023/09/17 06:06:27;;;;;;;74.07;41.15;;;;;;;;;;5053928;28;20100;-66
2023/09/17 06:08:53;;;;;;;66.80;40.65;;;;;;;;;;5053198;28;20397;-67
2023/09/17 06:11:18;;;;;;;66.90;40.97;;;;;;;;;;5053679;28;20096;-66
2023/09/17 06:13:44;;;;;;;68.80;40.55;;;;;;;;;;5053886;28;20024;-66
2023/09/17 06:16:09;;;;;;;68.75;39.83;;;;;;;;;;5053635;28;20078;-66
2023/09/17 06:18:34;;;;;;;58.50;37.00;;;;;;;;;;5053762;28;20048;-66
2023/09/17 06:21:00;;;;;;;58.17;36.40;;;;;;;;;;5053763;28;20338;-66
2023/09/17 06:23:25;;;;;;;55.72;35.15;;;;;;;;;;5053700;28;20491;-67
2023/09/17 06:25:50;;;;;;;56.95;34.47;;;;;;;;;;5053305;28;20023;-67
2023/09/17 06:28:15;;;;;;;57.22;36.25;;;;;;;;;;5053319;28;20055;-65
2023/09/17 06:30:41;;;;;;;53.50;34.38;;;;;;;;;;5053468;28;20052;-68
2023/09/17 06:33:06;;;;;;;52.40;32.80;;;;;;;;;;5052797;28;20017;-69
2023/09/17 06:35:31;;;;;;;49.35;32.83;;;;;;;;;;5052912;28;20032;-69
2023/09/17 06:37:57;;;;;;;46.60;31.83;;;;;;;;;;5053474;28;20028;-69
2023/09/17 06:40:22;;;;;;;49.75;32.28;;;;;;;;;;5052540;28;20035;-64
2023/09/17 06:42:48;;;;;;;51.40;32.60;;;;;;;;;;5053116;28;20028;-67
2023/09/17 06:45:13;;;;;;;43.53;28.23;;;;;;;;;;5053395;28;20025;-68
2023/09/17 06:47:38;;;;;;;47.45;30.60;;;;;;;;;;5052919;28;20497;-68
2023/09/17 06:50:04;;;;;;;46.97;31.20;;;;;;;;;;5053119;28;20048;-67
2023/09/17 06:52:29;;;;;;;48.80;30.50;;;;;;;;;;5053369;28;20025;-68
2023/09/17 06:54:54;;;;;;;52.42;31.95;;;;;;;;;;5053121;28;20020;-68
2023/09/17 06:57:19;;;;;;;50.42;32.40;;;;;;;;;;5053340;28;20024;-66
2023/09/17 06:59:46;;;;;;;54.38;34.80;;;;;;;;;;5052805;28;20082;-64
2023/09/17 07:02:11;;;;;;;50.30;32.22;;;;;;;;;;5053256;28;20025;-64
2023/09/17 07:04:36;;;;;;;50.58;34.03;;;;;;;;;;5052600;28;20043;-62
2023/09/17 07:07:02;;;;;;;49.28;32.28;;;;;;;;;;5053142;28;20358;-63
2023/09/17 07:09:28;;;;;;;47.78;31.10;;;;;;;;;;5052729;28;20461;-61
2023/09/17 07:11:53;;;;;;;44.28;29.95;;;;;;;;;;5052757;28;20025;-61
2023/09/17 07:14:18;;;;;;;38.92;27.02;;;;;;;;;;5051778;28;20082;-62
2023/09/17 07:16:44;;;;;;;35.30;25.10;;;;;;;;;;5052825;28;20027;-62
2023/09/17 07:19:10;;;;;;;36.53;25.45;;;;;;;;;;5052536;28;20056;-59
2023/09/17 07:21:35;;;;;;;35.60;23.67;;;;;;;;;;5052700;28;20017;-58
2023/09/17 07:24:00;;;;;;;31.92;21.88;;;;;;;;;;5052704;28;20032;-59
2023/09/17 07:26:25;;;;;;;32.28;23.20;;;;;;;;;;5052790;28;20017;-59
2023/09/17 07:28:50;;;;;;;30.23;21.98;;;;;;;;;;5052582;28;20025;-62
2023/09/17 07:31:16;;;;;;;29.90;21.35;;;;;;;;;;5052935;28;20024;-62
2023/09/17 07:33:42;;;;;;;36.50;24.10;;;;;;;;;;5052895;28;20024;-64
2023/09/17 07:36:07;;;;;;;34.78;24.05;;;;;;;;;;5052949;28;20131;-63
2023/09/17 07:38:33;;;;;;;35.30;24.67;;;;;;;;;;5055052;28;20496;-62
2023/09/17 07:40:59;;;;;;;35.85;24.33;;;;;;;;;;5056793;28;20391;-63
2023/09/17 07:43:24;;;;;;;37.10;26.67;;;;;;;;;;5056711;28;20100;-64
2023/09/17 07:45:50;;;;;;;37.30;25.77;;;;;;;;;;5056317;28;20049;-64
2023/09/17 07:48:15;;;;;;;37.20;25.40;;;;;;;;;;5056578;28;20059;-64
2023/09/17 07:50:40;;;;;;;38.55;25.40;;;;;;;;;;5056019;28;20457;-64
2023/09/17 07:53:07;;;;;;;36.42;24.92;;;;;;;;;;5056506;28;20067;-66
2023/09/17 07:55:32;;;;;;;35.22;24.20;;;;;;;;;;5056469;28;20025;-65
2023/09/17 07:57:57;;;;;;;35.85;23.52;;;;;;;;;;5056229;28;20017;-63
2023/09/17 08:00:22;;;;;;;29.55;20.55;;;;;;;;;;5056108;28;20029;-62
2023/09/17 08:02:48;;;;;;;30.45;20.63;;;;;;;;;;5056255;28;20097;-62
2023/09/17 08:05:15;;;;;;;30.50;21.63;;;;;;;;;;5055784;28;20049;-67
2023/09/17 08:07:40;;;;;;;31.70;22.35;;;;;;;;;;5055878;28;20029;-67
2023/09/17 08:10:06;;;;;;;31.98;22.00;;;;;;;;;;5055999;28;20019;-68
2023/09/17 08:12:32;;;;;;;32.70;23.17;;;;;;;;;;5055832;28;20016;-68
2023/09/17 08:14:57;;;;;;;31.13;21.50;;;;;;;;;;5056030;28;20096;-67
2023/09/17 08:17:23;;;;;;;31.13;21.20;;;;;;;;;;5055982;28;20029;-67
2023/09/17 08:19:48;;;;;;;30.40;21.17;;;;;;;;;;5055985;28;20032;-68
2023/09/17 08:22:13;;;;;;;29.33;19.45;;;;;;;;;;5055777;28;20021;-69
2023/09/17 08:24:38;;;;;;;25.80;19.88;;;;;;;;;;5055862;28;20481;-68
2023/09/17 08:27:04;;;;;;;26.95;19.40;;;;;;;;;;5055681;28;20088;-68
2023/09/17 08:29:29;;;;;;;28.00;19.63;;;;;;;;;;5055560;28;20024;-68
2023/09/17 08:31:55;;;;;;;27.77;20.27;;;;;;;;;;5054745;28;20013;-69
2023/09/17 08:34:20;;;;;;;27.98;19.98;;;;;;;;;;5055730;28;20021;-68
2023/09/17 08:36:45;;;;;;;27.67;20.00;;;;;;;;;;5054560;28;20461;-69
2023/09/17 08:39:11;;;;;;;27.92;19.17;;;;;;;;;;5055684;28;20025;-70
2023/09/17 08:41:38;;;;;;;26.45;19.95;;;;;;;;;;5055565;28;20025;-69
2023/09/17 08:44:04;;;;;;;28.45;18.92;;;;;;;;;;5055610;28;20076;-68
2023/09/17 08:46:30;;;;;;;27.35;20.15;;;;;;;;;;5055350;28;20117;-69
2023/09/17 08:48:55;;;;;;;25.98;18.35;;;;;;;;;;5054185;28;20025;-68
2023/09/17 08:51:23;;;;;;;24.92;18.85;;;;;;;;;;5055337;28;20017;-68
2023/09/17 08:53:51;;;;;;;24.77;17.48;;;;;;;;;;5055118;28;20023;-68
2023/09/17 08:56:17;;;;;;;24.52;17.25;;;;;;;;;;5055464;28;20495;-69
2023/09/17 08:58:46;;;;;;;24.13;17.90;;;;;;;;;;5055204;28;20092;-68
2023/09/17 09:01:13;;;;;;;26.38;17.52;;;;;;;;;;5054996;28;20465;-68
2023/09/17 09:03:39;;;;;;;25.98;16.88;;;;;;;;;;5054861;28;20124;-69
2023/09/17 09:06:06;;;;;;;32.85;18.10;;;;;;;;;;5054970;28;20051;-70
2023/09/17 09:08:31;;;;;;;21.73;16.02;;;;;;;;;;5054972;28;20376;-68
2023/09/17 09:10:57;;;;;;;22.58;15.65;;;;;;;;;;5055198;28;20092;-70
2023/09/17 09:13:23;;;;;;;20.92;15.45;;;;;;;;;;5054451;28;20029;-69
2023/09/17 09:15:49;;;;;;;23.83;16.90;;;;;;;;;;5054802;28;20100;-69
2023/09/17 09:18:14;;;;;;;21.13;14.70;;;;;;;;;;5054779;28;20025;-69
2023/09/17 09:20:40;;;;;;;21.13;15.18;;;;;;;;;;5053650;28;20051;-69
2023/09/17 09:23:06;;;;;;;22.27;15.50;;;;;;;;;;5054237;28;20104;-69
2023/09/17 09:25:31;;;;;;;20.98;14.15;;;;;;;;;;5054547;28;20032;-68
2023/09/17 09:28:03;;;;;;;18.35;12.70;;;;;;;;;;5054704;28;20029;-68
2023/09/17 09:30:28;;;;;;;15.48;11.75;;;;;;;;;;5054717;28;20021;-68
2023/09/17 09:32:54;;;;;;;15.15;11.68;;;;;;;;;;5054083;28;20023;-68
2023/09/17 09:35:19;;;;;;;15.35;10.77;;;;;;;;;;5053967;28;20024;-69
2023/09/17 09:37:45;;;;;;;13.35;10.13;;;;;;;;;;5053436;28;20017;-69
2023/09/17 09:40:10;;;;;;;14.55;10.75;;;;;;;;;;5053313;28;20040;-67
2023/09/17 09:42:36;;;;;;;14.95;11.45;;;;;;;;;;5050443;28;20020;-69
2023/09/17 09:45:02;;;;;;;15.40;11.23;;;;;;;;;;5053276;28;20039;-70
2023/09/17 09:47:29;;;;;;;15.65;11.23;;;;;;;;;;5052915;28;20048;-69
2023/09/17 09:49:56;;;;;;;13.05;9.80;;;;;;;;;;5052991;28;20084;-69
2023/09/17 09:52:21;;;;;;;13.15;9.73;;;;;;;;;;5053946;28;20060;-69
2023/09/17 09:54:47;;;;;;;11.90;9.15;;;;;;;;;;5053741;28;20493;-71
2023/09/17 09:57:12;;;;;;;12.48;9.32;;;;;;;;;;5053250;28;20094;-68
2023/09/17 09:59:38;;;;;;;12.63;9.48;;;;;;;;;;5053306;28;20497;-69
2023/09/17 10:02:04;;;;;;;11.60;8.18;;;;;;;;;;5051517;28;20024;-70
2023/09/17 10:04:29;;;;;;;11.65;7.70;;;;;;;;;;5052984;28;20135;-70
2023/09/17 10:06:56;;;;;;;11.20;7.65;;;;;;;;;;5052730;28;20104;-71
2023/09/17 10:09:22;;;;;;;12.80;7.30;;;;;;;;;;5053241;28;20032;-69
2023/09/17 10:11:48;;;;;;;9.20;6.80;;;;;;;;;;5042559;28;20048;-68
2023/09/17 10:14:13;;;;;;;9.80;6.70;;;;;;;;;;5051142;28;20056;-68
2023/09/17 10:16:39;;;;;;;10.60;6.70;;;;;;;;;;5046066;28;20032;-70
2023/09/17 10:19:06;;;;;;;8.18;6.50;;;;;;;;;;5053441;28;20031;-70
2023/09/17 10:21:37;;;;;;;11.00;6.75;;;;;;;;;;5052415;28;20029;-69
2023/09/17 10:24:03;;;;;;;11.15;7.03;;;;;;;;;;5052987;28;20021;-69
2023/09/17 10:26:32;;;;;;;8.52;6.47;;;;;;;;;;5052994;28;20053;-67
2023/09/17 10:28:59;;;;;;;9.38;6.88;;;;;;;;;;5052187;28;20381;-66
2023/09/17 10:31:25;;;;;;;9.20;6.80;;;;;;;;;;5052014;28;20036;-65
2023/09/17 10:33:50;;;;;;;8.57;6.28;;;;;;;;;;5049715;28;20017;-68
2023/09/17 10:36:16;;;;;;;9.38;6.30;;;;;;;;;;5052251;28;20364;-67
2023/09/17 10:38:42;;;;;;;11.13;6.38;;;;;;;;;;5050164;28;20043;-67
2023/09/17 10:41:08;;;;;;;8.77;6.32;;;;;;;;;;5052079;28;20025;-66
2023/09/17 10:43:35;;;;;;;8.20;6.30;;;;;;;;;;5049841;28;20040;-68
2023/09/17 10:46:01;;;;;;;9.85;6.80;;;;;;;;;;5051141;28;20043;-69
2023/09/17 10:48:27;;;;;;;14.77;9.52;;;;;;;;;;5050357;28;20064;-69
2023/09/17 10:50:53;;;;;;;9.13;6.20;;;;;;;;;;5052074;28;20034;-67
2023/09/17 10:53:18;;;;;;;13.95;10.27;;;;;;;;;;5051919;28;20025;-66
2023/09/17 10:55:46;;;;;;;9.18;6.07;;;;;;;;;;5051835;28;20017;-65
2023/09/17 10:58:11;;;;;;;10.38;7.35;;;;;;;;;;5051536;28;20064;-68
2023/09/17 11:00:39;;;;;;;11.13;5.78;;;;;;;;;;5052044;28;20020;-67
2023/09/17 11:03:05;;;;;;;14.88;9.50;;;;;;;;;;5050440;28;20022;-68
2023/09/17 11:05:31;;;;;;;7.15;5.20;;;;;;;;;;5051346;28;20399;-68
2023/09/17 11:08:00;;;;;;;216.80;130.40;;;;;;;;;;5050187;28;20090;-66
2023/09/17 11:10:25;;;;;;;12.23;8.43;;;;;;;;;;5049348;28;20021;-66
2023/09/17 11:12:51;;;;;;;20.38;13.00;;;;;;;;;;5050700;28;20404;-66
2023/09/17 11:15:17;;;;;;;7.82;5.40;;;;;;;;;;5054206;28;20108;-67
2023/09/17 11:17:45;;;;;;;8.25;4.93;;;;;;;;;;5055907;28;20021;-68
2023/09/17 11:20:13;;;;;;;7.97;5.45;;;;;;;;;;5054129;28;20025;-66
2023/09/17 11:22:40;;;;;;;19.90;13.27;;;;;;;;;;5054729;28;20386;-67
2023/09/17 11:25:08;;;;;;;7.75;4.70;;;;;;;;;;5055493;28;20517;-68
2023/09/17 11:27:43;;;;;;;10.32;4.38;;;;;;;;;;5055739;28;20426;-69
2023/09/17 11:30:14;;;;;;;6.10;3.42;;;;;;;;;;5055427;28;20492;-69
2023/09/17 11:32:40;;;;;;;6.70;3.80;;;;;;;;;;5053978;28;20028;-69
2023/09/17 11:35:07;;;;;;;8.23;3.75;;;;;;;;;;5056891;28;20021;-67
2023/09/17 11:37:32;;;;;;;12.70;11.38;;;;;;;;;;5056752;28;20036;-67
2023/09/17 11:39:57;;;;;;;6.25;4.55;;;;;;;;;;5056766;28;20501;-68
2023/09/17 11:42:23;;;;;;;5.90;3.80;;;;;;;;;;5055545;28;20082;-69
2023/09/17 11:44:48;;;;;;;5.78;3.97;;;;;;;;;;5056200;28;20024;-64
2023/09/17 11:47:14;;;;;;;7.15;3.83;;;;;;;;;;5056525;28;20028;-71
2023/09/17 11:49:39;;;;;;;5.10;3.30;;;;;;;;;;5056390;28;20466;-62
2023/09/17 11:52:11;;;;;;;5.40;3.58;;;;;;;;;;5056142;28;20029;-63
2023/09/17 11:54:50;;;;;;;5.45;3.65;;;;;;;;;;5056188;28;20492;-66
2023/09/17 11:57:25;;;;;;;5.45;3.50;;;;;;;;;;5056300;28;20469;-63
2023/09/17 11:59:50;;;;;;;7.40;4.22;;;;;;;;;;5056346;28;20017;-64
2023/09/17 12:02:16;;;;;;;7.57;4.13;;;;;;;;;;5055918;28;20484;-70
2023/09/17 12:04:43;;;;;;;7.22;3.47;;;;;;;;;;5055113;28;20554;-70
2023/09/17 12:07:09;;;;;;;6.38;3.45;;;;;;;;;;5056325;28;20489;-69
2023/09/17 12:10:00;;;;;;;5.20;3.60;;;;;;;;;;5056136;28;20028;-67
2023/09/17 12:12:26;;;;;;;5.63;3.35;;;;;;;;;;5055923;28;20049;-69
2023/09/17 12:14:51;;;;;;;7.07;3.80;;;;;;;;;;5056076;28;20017;-67
2023/09/17 12:17:17;;;;;;;5.43;3.17;;;;;;;;;;5055947;28;20092;-64
2023/09/17 12:19:42;;;;;;;8.70;3.50;;;;;;;;;;5055733;28;20017;-71
2023/09/17 12:22:09;;;;;;;5.38;3.20;;;;;;;;;;5055866;28;20084;-66
2023/09/17 12:24:46;;;;;;;5.65;3.20;;;;;;;;;;5055324;28;20021;-67
2023/09/17 12:29:57;;;;;;;4.90;3.30;;;;;;;;;;5055983;28;20078;-64
2023/09/17 12:32:26;;;;;;;5.40;3.17;;;;;;;;;;5055149;28;20479;-67
2023/09/17 12:34:52;;;;;;;4.82;2.95;;;;;;;;;;5055194;28;20021;-65
2023/09/17 12:37:17;;;;;;;6.07;2.90;;;;;;;;;;5055187;28;20087;-68
2023/09/17 12:39:44;;;;;;;4.53;2.80;;;;;;;;;;5055230;28;20051;-66
2023/09/17 12:42:09;;;;;;;4.60;2.90;;;;;;;;;;5053883;28;20025;-69
2023/09/17 12:44:34;;;;;;;5.15;3.15;;;;;;;;;;5053328;28;20027;-65
2023/09/17 12:46:59;;;;;;;7.57;3.10;;;;;;;;;;5055500;28;20465;-72
2023/09/17 12:49:25;;;;;;;4.43;2.67;;;;;;;;;;5055403;28;20377;-71
2023/09/17 12:51:53;;;;;;;4.95;2.42;;;;;;;;;;5055041;28;20481;-65
2023/09/17 12:54:21;;;;;;;3.80;2.55;;;;;;;;;;5055129;28;20021;-70
2023/09/17 12:56:47;;;;;;;4.57;2.50;;;;;;;;;;5054962;28;20096;-71
2023/09/17 12:59:12;;;;;;;5.03;2.53;;;;;;;;;;5055066;28;20042;-72
2023/09/17 13:01:50;;;;;;;4.28;2.67;;;;;;;;;;5054551;28;20078;-65
2023/09/17 13:04:15;;;;;;;4.72;2.80;;;;;;;;;;5053636;28;20052;-70
2023/09/17 13:06:41;;;;;;;5.13;2.85;;;;;;;;;;5054810;28;20376;-71
2023/09/17 13:09:07;;;;;;;4.00;2.58;;;;;;;;;;5054914;28;20369;-72
2023/09/17 13:11:33;;;;;;;4.35;2.78;;;;;;;;;;5054127;28;20017;-66
2023/09/17 13:13:59;;;;;;;5.25;3.00;;;;;;;;;;5050254;28;20021;-70
2023/09/17 13:16:24;;;;;;;8.73;3.03;;;;;;;;;;5053862;28;20603;-74
2023/09/17 13:18:49;;;;;;;4.65;2.70;;;;;;;;;;5054063;28;20079;-70
2023/09/17 13:21:15;;;;;;;4.85;2.90;;;;;;;;;;5052641;28;20021;-68
2023/09/17 13:23:42;;;;;;;4.60;2.97;;;;;;;;;;5053120;28;20023;-73
2023/09/17 13:26:07;;;;;;;4.90;2.70;;;;;;;;;;5054310;28;20036;-72
2023/09/17 13:28:33;;;;;;;4.18;2.63;;;;;;;;;;5053651;28;20476;-73
2023/09/17 13:31:02;;;;;;;4.90;2.70;;;;;;;;;;5052141;28;20116;-69
2023/09/17 13:33:27;;;;;;;5.25;2.90;;;;;;;;;;5054429;28;20017;-67
2023/09/17 13:35:53;;;;;;;5.25;2.92;;;;;;;;;;5053824;28;20101;-68
2023/09/17 13:38:18;;;;;;;4.90;3.13;;;;;;;;;;5054566;28;20017;-68
2023/09/17 13:40:46;;;;;;;4.32;3.10;;;;;;;;;;5054473;28;20374;-72
2023/09/17 13:43:12;;;;;;;5.53;3.25;;;;;;;;;;5054102;28;20021;-74
2023/09/17 13:45:37;;;;;;;7.20;3.15;;;;;;;;;;5053990;28;20021;-71
2023/09/17 13:48:02;;;;;;;4.93;3.10;;;;;;;;;;5053587;28;20021;-65
2023/09/17 13:50:28;;;;;;;4.68;3.17;;;;;;;;;;5053577;28;20025;-73
2023/09/17 13:52:53;;;;;;;6.25;3.30;;;;;;;;;;5053103;28;20029;-73
2023/09/17 13:55:19;;;;;;;7.47;3.38;;;;;;;;;;5053189;28;20033;-74
2023/09/17 13:57:44;;;;;;;5.78;3.20;;;;;;;;;;5053413;28;20397;-73
2023/09/17 14:00:09;;;;;;;6.38;3.33;;;;;;;;;;5053696;28;20020;-71
2023/09/17 14:02:35;;;;;;;5.22;3.40;;;;;;;;;;5052874;28;20503;-76
2023/09/17 14:05:00;;;;;;;5.75;3.30;;;;;;;;;;5053170;28;20056;-72
2023/09/17 14:07:25;;;;;;;5.85;3.28;;;;;;;;;;5051828;28;20020;-74
2023/09/17 14:09:51;;;;;;;6.35;3.40;;;;;;;;;;5053281;28;20053;-77
2023/09/17 14:12:16;;;;;;;8.10;3.25;;;;;;;;;;5053828;28;20070;-74
2023/09/17 14:14:41;;;;;;;7.82;3.42;;;;;;;;;;5053340;28;20429;-73
2023/09/17 14:17:08;;;;;;;5.43;2.90;;;;;;;;;;5053538;28;20017;-76
2023/09/17 14:19:34;;;;;;;5.22;2.97;;;;;;;;;;5053060;28;20112;-70